Time;durP1;ratioP1;P1;durP2;ratioP2;P2;SDS_P1;SDS_P2;PMS_P1;PMS_P2;Temp;Humidity;BMP_temperature;BMP_pressure;BME280_temperature;BME280_humidity;BME280_pressure;Samples;Min_cycle;Max_cycle;Signal;HPM_P1;HPM_P2
2023/04/02 00:01:01;;;;;;;2.92;1.60;;;;;;;;;;5037861;28;20075;-62
2023/04/02 00:03:58;;;;;;;5.25;1.88;;;;;;;;;;5037633;28;20033;-62
2023/04/02 00:06:33;;;;;;;1.73;1.35;;;;;;;;;;5037236;28;20033;-62
2023/04/02 00:09:20;;;;;;;4.78;1.90;;;;;;;;;;5037800;28;20025;-62
2023/04/02 00:11:47;;;;;;;2.70;2.08;;;;;;;;;;5037597;28;20030;-61
2023/04/02 00:14:30;;;;;;;6.22;2.25;;;;;;;;;;5037950;28;20021;-63
2023/04/02 00:16:57;;;;;;;4.40;2.10;;;;;;;;;;5037520;28;20034;-64
2023/04/02 00:19:43;;;;;;;5.38;2.50;;;;;;;;;;5037664;28;20061;-62
2023/04/02 00:22:15;;;;;;;5.25;2.53;;;;;;;;;;5036700;28;20037;-63
2023/04/02 00:24:41;;;;;;;4.65;2.17;;;;;;;;;;5037427;28;20033;-63
2023/04/02 00:27:11;;;;;;;3.05;1.95;;;;;;;;;;5037647;28;20029;-63
2023/04/02 00:29:44;;;;;;;5.38;2.00;;;;;;;;;;5038871;28;20033;-62
2023/04/02 00:32:15;;;;;;;3.40;1.77;;;;;;;;;;5057368;28;20039;-62
2023/04/02 00:34:41;;;;;;;2.30;1.67;;;;;;;;;;5054371;28;20498;-64
2023/04/02 00:37:07;;;;;;;3.70;1.83;;;;;;;;;;5037173;28;20486;-63
2023/04/02 00:39:40;;;;;;;4.00;2.25;;;;;;;;;;5037448;28;20218;-64
2023/04/02 00:42:06;;;;;;;4.00;2.05;;;;;;;;;;5037179;28;20041;-63
2023/04/02 00:44:43;;;;;;;5.25;1.70;;;;;;;;;;5037438;28;20457;-62
2023/04/02 00:47:13;;;;;;;3.05;1.80;;;;;;;;;;5037606;28;20022;-63
2023/04/02 00:49:40;;;;;;;1.63;1.52;;;;;;;;;;5037251;28;20537;-62
2023/04/02 00:52:08;;;;;;;2.25;1.70;;;;;;;;;;5037260;28;20390;-63
2023/04/02 00:54:38;;;;;;;4.70;1.70;;;;;;;;;;5037261;28;20022;-63
2023/04/02 00:57:11;;;;;;;2.20;1.80;;;;;;;;;;5036985;28;20040;-61
2023/04/02 00:59:47;;;;;;;2.97;1.80;;;;;;;;;;5038287;28;20029;-63
2023/04/02 01:02:13;;;;;;;1.55;1.35;;;;;;;;;;5034501;28;20033;-63
2023/04/02 01:04:40;;;;;;;2.40;1.50;;;;;;;;;;5049202;28;20096;-63
2023/04/02 01:07:09;;;;;;;2.45;1.80;;;;;;;;;;5054166;28;20124;-62
2023/04/02 01:09:50;;;;;;;1.90;1.50;;;;;;;;;;5053885;28;20029;-63
2023/04/02 01:12:25;;;;;;;2.35;1.30;;;;;;;;;;5054153;28;20032;-63
2023/04/02 01:15:10;;;;;;;1.80;1.60;;;;;;;;;;5053683;28;20500;-62
2023/04/02 01:17:59;;;;;;;1.60;1.50;;;;;;;;;;5053645;28;20412;-62
2023/04/02 01:20:45;;;;;;;6.53;1.40;;;;;;;;;;5052197;28;20479;-62
2023/04/02 01:23:15;;;;;;;2.22;1.55;;;;;;;;;;5051920;28;20056;-63
2023/04/02 01:25:50;;;;;;;2.38;1.58;;;;;;;;;;5033933;28;20037;-63
2023/04/02 01:28:18;;;;;;;2.72;1.30;;;;;;;;;;5033607;28;20539;-63
2023/04/02 01:30:45;;;;;;;1.60;1.45;;;;;;;;;;5032882;28;20125;-63
2023/04/02 01:33:11;;;;;;;3.67;1.48;;;;;;;;;;5053081;28;20021;-62
2023/04/02 01:35:40;;;;;;;1.40;1.30;;;;;;;;;;5053666;28;20028;-63
2023/04/02 01:38:07;;;;;;;4.38;2.92;;;;;;;;;;5053189;28;20541;-65
2023/04/02 01:40:42;;;;;;;3.83;1.60;;;;;;;;;;5041417;28;20038;-62
2023/04/02 01:43:08;;;;;;;2.38;1.20;;;;;;;;;;5049427;28;20033;-63
2023/04/02 01:45:34;;;;;;;2.13;1.52;;;;;;;;;;5050398;28;20022;-62
2023/04/02 01:48:02;;;;;;;1.90;1.35;;;;;;;;;;5033226;28;20026;-63
2023/04/02 01:50:35;;;;;;;2.42;1.40;;;;;;;;;;5033136;28;20022;-62
2023/04/02 01:53:09;;;;;;;1.60;1.48;;;;;;;;;;5033065;28;20109;-63
2023/04/02 01:55:41;;;;;;;2.75;1.77;;;;;;;;;;5033704;28;20036;-63
2023/04/02 01:58:10;;;;;;;4.95;2.03;;;;;;;;;;5032929;28;20528;-63
2023/04/02 02:00:40;;;;;;;2.35;1.67;;;;;;;;;;5032926;28;20120;-63
2023/04/02 02:03:08;;;;;;;1.83;1.52;;;;;;;;;;5032728;28;20514;-64
2023/04/02 02:05:35;;;;;;;4.97;1.80;;;;;;;;;;5032976;28;20026;-62
2023/04/02 02:08:01;;;;;;;3.80;1.88;;;;;;;;;;5032671;28;20029;-63
2023/04/02 02:10:32;;;;;;;3.72;1.50;;;;;;;;;;5032752;28;20026;-63
2023/04/02 02:12:59;;;;;;;2.03;1.70;;;;;;;;;;5032005;28;20355;-62
2023/04/02 02:15:25;;;;;;;3.30;1.80;;;;;;;;;;5032777;28;20605;-63
2023/04/02 02:17:57;;;;;;;3.20;1.52;;;;;;;;;;5032591;28;20563;-62
2023/04/02 02:20:23;;;;;;;2.83;2.00;;;;;;;;;;5032622;28;20463;-62
2023/04/02 02:22:50;;;;;;;2.70;1.70;;;;;;;;;;5032046;28;20036;-63
2023/04/02 02:25:18;;;;;;;2.47;1.80;;;;;;;;;;5048733;28;20029;-62
2023/04/02 02:27:56;;;;;;;1.92;1.70;;;;;;;;;;5049123;28;20109;-63
2023/04/02 02:30:34;;;;;;;1.92;1.70;;;;;;;;;;5032661;28;20040;-64
2023/04/02 02:33:24;;;;;;;2.78;1.90;;;;;;;;;;5032250;28;20034;-63
2023/04/02 02:35:53;;;;;;;5.55;2.13;;;;;;;;;;5031813;28;20038;-62
2023/04/02 02:38:29;;;;;;;4.18;2.10;;;;;;;;;;5032326;28;20108;-63
2023/04/02 02:40:58;;;;;;;2.20;2.00;;;;;;;;;;5038596;28;20044;-62
2023/04/02 02:43:26;;;;;;;4.07;2.10;;;;;;;;;;5032181;28;20040;-62
2023/04/02 02:45:53;;;;;;;3.53;2.00;;;;;;;;;;5032947;28;20719;-62
2023/04/02 02:48:20;;;;;;;3.97;2.00;;;;;;;;;;5032286;28;20036;-63
2023/04/02 02:50:46;;;;;;;2.40;1.90;;;;;;;;;;5031468;28;20040;-62
2023/04/02 02:53:17;;;;;;;2.72;1.90;;;;;;;;;;5037583;28;20021;-61
2023/04/02 02:55:43;;;;;;;3.10;2.05;;;;;;;;;;5052072;28;20355;-62
2023/04/02 02:58:14;;;;;;;2.13;1.75;;;;;;;;;;5038556;28;20033;-64
2023/04/02 03:00:42;;;;;;;6.20;2.60;;;;;;;;;;5045353;28;20489;-61
2023/04/02 03:03:11;;;;;;;3.95;2.40;;;;;;;;;;5040326;28;20499;-62
2023/04/02 03:05:38;;;;;;;3.42;2.10;;;;;;;;;;5041605;28;20522;-62
2023/04/02 03:08:06;;;;;;;4.13;2.42;;;;;;;;;;5051572;28;20116;-61
2023/04/02 03:10:55;;;;;;;5.50;2.42;;;;;;;;;;5051195;28;20029;-60
2023/04/02 03:13:34;;;;;;;3.15;2.33;;;;;;;;;;5051409;28;20025;-61
2023/04/02 03:16:00;;;;;;;3.58;2.58;;;;;;;;;;5050194;28;20051;-62
2023/04/02 03:18:32;;;;;;;7.82;2.70;;;;;;;;;;5051419;28;20067;-63
2023/04/02 03:20:58;;;;;;;;;;;;;;;;;;5045317;28;20025;-61
2023/04/02 03:23:28;;;;;;;6.38;3.42;;;;;;;;;;5032091;28;19905;-62
2023/04/02 03:26:04;;;;;;;4.70;3.05;;;;;;;;;;5040302;28;20028;-62
2023/04/02 03:28:32;;;;;;;10.18;3.55;;;;;;;;;;5050519;28;20048;-62
2023/04/02 03:30:58;;;;;;;6.78;3.75;;;;;;;;;;5051147;28;20370;-62
2023/04/02 03:33:26;;;;;;;6.57;3.70;;;;;;;;;;5051186;28;20032;-62
2023/04/02 03:35:57;;;;;;;9.30;4.93;;;;;;;;;;5051102;28;20021;-63
2023/04/02 03:38:26;;;;;;;6.78;4.13;;;;;;;;;;5051278;28;20083;-63
2023/04/02 03:41:07;;;;;;;7.93;3.83;;;;;;;;;;5050712;28;20048;-62
2023/04/02 03:43:44;;;;;;;9.05;4.43;;;;;;;;;;5051085;28;20470;-62
2023/04/02 03:46:22;;;;;;;8.82;4.57;;;;;;;;;;5050916;28;20108;-63
2023/04/02 03:48:51;;;;;;;9.95;4.75;;;;;;;;;;5050749;28;20496;-63
2023/04/02 03:51:19;;;;;;;9.77;5.30;;;;;;;;;;5050990;28;20059;-63
2023/04/02 03:53:46;;;;;;;8.15;5.25;;;;;;;;;;5049742;28;20047;-62
2023/04/02 03:56:38;;;;;;;8.73;6.00;;;;;;;;;;5050924;28;20021;-63
2023/04/02 03:59:04;;;;;;;;;;;;;;;;;;5050961;28;20041;-62
2023/04/02 04:01:37;;;;;;;12.80;5.65;;;;;;;;;;5049818;28;19916;-62
2023/04/02 04:04:09;;;;;;;11.20;5.55;;;;;;;;;;5050813;28;20017;-62
2023/04/02 04:06:36;;;;;;;10.00;5.80;;;;;;;;;;5050861;28;20021;-62
2023/04/02 04:09:18;;;;;;;14.05;6.20;;;;;;;;;;5050547;28;20481;-64
2023/04/02 04:11:45;;;;;;;12.18;5.55;;;;;;;;;;5050662;28;20029;-61
2023/04/02 04:14:19;;;;;;;12.82;6.78;;;;;;;;;;5051035;28;20041;-63
2023/04/02 04:17:22;;;;;;;10.30;5.90;;;;;;;;;;5049486;28;20470;-61
2023/04/02 04:19:59;;;;;;;15.48;7.05;;;;;;;;;;5049380;28;20086;-62
2023/04/02 04:22:30;;;;;;;10.48;5.90;;;;;;;;;;5031143;28;20103;-63
2023/04/02 04:25:01;;;;;;;11.82;6.03;;;;;;;;;;5030492;28;20074;-62
2023/04/02 04:27:38;;;;;;;10.10;5.35;;;;;;;;;;5030899;28;20030;-62
2023/04/02 04:30:17;;;;;;;19.15;6.30;;;;;;;;;;5031156;28;20032;-62
2023/04/02 04:32:56;;;;;;;15.77;7.13;;;;;;;;;;5050737;28;20025;-61
2023/04/02 04:35:30;;;;;;;15.02;6.38;;;;;;;;;;5050304;28;20037;-62
2023/04/02 04:38:02;;;;;;;13.02;6.07;;;;;;;;;;5054217;28;20434;-62
2023/04/02 04:40:31;;;;;;;19.50;7.03;;;;;;;;;;5054210;28;20049;-62
2023/04/02 04:43:00;;;;;;;9.52;5.88;;;;;;;;;;5054462;28;20291;-61
2023/04/02 04:45:29;;;;;;;14.20;6.60;;;;;;;;;;5054208;28;20060;-62
2023/04/02 04:48:05;;;;;;;18.30;7.03;;;;;;;;;;5054234;28;20407;-64
2023/04/02 04:50:54;;;;;;;18.42;6.38;;;;;;;;;;5054306;28;20095;-62
2023/04/02 04:53:22;;;;;;;13.70;6.78;;;;;;;;;;5053757;28;20045;-62
2023/04/02 04:55:50;;;;;;;15.90;6.32;;;;;;;;;;5054278;28;20024;-63
2023/04/02 04:58:19;;;;;;;14.95;6.50;;;;;;;;;;5053900;28;20035;-62
2023/04/02 05:00:48;;;;;;;13.43;7.20;;;;;;;;;;5052757;28;20275;-62
2023/04/02 05:03:40;;;;;;;13.57;6.28;;;;;;;;;;5053913;28;20031;-61
2023/04/02 05:06:30;;;;;;;10.20;6.45;;;;;;;;;;5053666;28;20037;-62
2023/04/02 05:08:59;;;;;;;14.93;5.93;;;;;;;;;;5053668;28;20021;-61
2023/04/02 05:11:28;;;;;;;9.15;5.22;;;;;;;;;;5053492;28;20032;-62
2023/04/02 05:14:00;;;;;;;15.00;6.95;;;;;;;;;;5053791;28;20079;-62
2023/04/02 05:16:38;;;;;;;12.77;6.03;;;;;;;;;;5053622;28;20650;-63
2023/04/02 05:19:18;;;;;;;12.10;6.22;;;;;;;;;;5053858;28;20102;-62
2023/04/02 05:21:56;;;;;;;18.23;6.35;;;;;;;;;;5053636;28;20048;-63
2023/04/02 05:24:41;;;;;;;14.68;5.55;;;;;;;;;;5053465;28;20478;-61
2023/04/02 05:27:13;;;;;;;10.82;5.35;;;;;;;;;;5053745;28;20059;-63
2023/04/02 05:29:40;;;;;;;13.70;5.60;;;;;;;;;;5053565;28;20025;-62
2023/04/02 05:32:15;;;;;;;12.93;6.07;;;;;;;;;;5052244;28;20033;-62
2023/04/02 05:34:45;;;;;;;15.32;6.10;;;;;;;;;;5053239;28;20027;-63
2023/04/02 05:37:19;;;;;;;19.42;7.18;;;;;;;;;;5051926;28;20059;-62
2023/04/02 05:39:46;;;;;;;12.50;5.78;;;;;;;;;;5053096;28;20536;-62
2023/04/02 05:42:19;;;;;;;17.40;6.43;;;;;;;;;;5053549;28;20063;-62
2023/04/02 05:44:57;;;;;;;14.00;6.45;;;;;;;;;;5053186;28;20028;-63
2023/04/02 05:47:27;;;;;;;15.90;7.30;;;;;;;;;;5036040;28;20022;-63
2023/04/02 05:50:10;;;;;;;14.05;5.75;;;;;;;;;;5053000;28;20029;-62
2023/04/02 05:52:39;;;;;;;15.07;6.60;;;;;;;;;;5041434;28;20072;-63
2023/04/02 05:55:05;;;;;;;16.67;6.88;;;;;;;;;;5032892;28;20033;-62
2023/04/02 05:57:35;;;;;;;14.23;5.88;;;;;;;;;;5033101;28;20087;-62
2023/04/02 06:00:05;;;;;;;17.95;6.20;;;;;;;;;;5032763;28;20032;-63
2023/04/02 06:02:43;;;;;;;16.33;6.40;;;;;;;;;;5032651;28;20032;-63
2023/04/02 06:05:17;;;;;;;15.45;5.43;;;;;;;;;;5032783;28;20026;-61
2023/04/02 06:08:19;;;;;;;24.45;6.57;;;;;;;;;;5031411;28;20371;-63
2023/04/02 06:10:53;;;;;;;13.05;5.18;;;;;;;;;;5046305;28;20445;-63
2023/04/02 06:13:20;;;;;;;14.07;5.60;;;;;;;;;;5035071;28;20037;-62
2023/04/02 06:15:46;;;;;;;14.85;5.22;;;;;;;;;;5032536;28;20026;-62
2023/04/02 06:18:17;;;;;;;17.10;5.43;;;;;;;;;;5032484;28;20126;-63
2023/04/02 06:20:43;;;;;;;11.60;4.90;;;;;;;;;;5032539;28;20017;-62
2023/04/02 06:23:29;;;;;;;15.60;4.72;;;;;;;;;;5032482;28;20380;-63
2023/04/02 06:26:04;;;;;;;15.07;4.50;;;;;;;;;;5032280;28;20040;-64
2023/04/02 06:28:34;;;;;;;14.55;4.68;;;;;;;;;;5032399;28;20100;-63
2023/04/02 06:31:02;;;;;;;13.15;4.80;;;;;;;;;;5032445;28;20111;-63
2023/04/02 06:33:30;;;;;;;12.38;5.28;;;;;;;;;;5032242;28;20025;-63
2023/04/02 06:35:56;;;;;;;12.90;5.00;;;;;;;;;;5032240;28;20029;-63
2023/04/02 06:38:25;;;;;;;12.98;5.38;;;;;;;;;;5032387;28;20071;-63
2023/04/02 06:40:53;;;;;;;13.77;5.00;;;;;;;;;;5032219;28;20072;-62
2023/04/02 06:43:25;;;;;;;10.05;4.78;;;;;;;;;;5032789;28;20667;-62
2023/04/02 06:45:54;;;;;;;17.25;4.90;;;;;;;;;;5032407;28;20059;-63
2023/04/02 06:48:21;;;;;;;11.90;4.28;;;;;;;;;;5032118;28;20477;-63
2023/04/02 06:51:00;;;;;;;14.82;4.82;;;;;;;;;;5032035;28;20129;-63
2023/04/02 06:53:33;;;;;;;14.93;4.85;;;;;;;;;;5031942;28;20032;-64
2023/04/02 06:55:59;;;;;;;11.32;4.40;;;;;;;;;;5032303;28;20017;-63
2023/04/02 06:58:25;;;;;;;7.68;3.78;;;;;;;;;;5031278;28;20041;-64
2023/04/02 07:00:51;;;;;;;11.38;3.65;;;;;;;;;;5032454;28;20402;-62
2023/04/02 07:03:21;;;;;;;9.10;3.90;;;;;;;;;;5031651;28;20543;-62
2023/04/02 07:05:47;;;;;;;10.43;3.65;;;;;;;;;;5031901;28;20021;-63
2023/04/02 07:08:13;;;;;;;9.68;3.90;;;;;;;;;;5031807;28;20021;-62
2023/04/02 07:10:39;;;;;;;10.75;3.70;;;;;;;;;;5031675;28;20500;-63
2023/04/02 07:13:05;;;;;;;8.90;3.72;;;;;;;;;;5031896;28;20041;-62
2023/04/02 07:15:32;;;;;;;10.63;4.00;;;;;;;;;;5031767;28;20029;-62
2023/04/02 07:17:58;;;;;;;7.97;3.47;;;;;;;;;;5032232;28;20037;-64
2023/04/02 07:20:26;;;;;;;8.55;4.18;;;;;;;;;;5031650;28;20494;-62
2023/04/02 07:22:52;;;;;;;11.95;3.97;;;;;;;;;;5031475;28;20302;-63
2023/04/02 07:25:18;;;;;;;12.23;4.45;;;;;;;;;;5031664;28;20378;-62
2023/04/02 07:27:44;;;;;;;10.95;3.63;;;;;;;;;;5031491;28;20488;-62
2023/04/02 07:30:11;;;;;;;10.35;4.80;;;;;;;;;;5031252;28;20029;-64
2023/04/02 07:32:37;;;;;;;14.27;4.15;;;;;;;;;;5031349;28;20025;-62
2023/04/02 07:35:04;;;;;;;10.30;4.07;;;;;;;;;;5030536;28;20144;-62
2023/04/02 07:37:30;;;;;;;10.27;4.65;;;;;;;;;;5030152;28;20037;-62
2023/04/02 07:39:56;;;;;;;6.72;3.10;;;;;;;;;;5031110;28;20362;-63
2023/04/02 07:42:23;;;;;;;6.53;3.20;;;;;;;;;;5031120;28;20053;-63
2023/04/02 07:44:50;;;;;;;5.93;3.03;;;;;;;;;;5031200;28;20478;-61
2023/04/02 07:47:16;;;;;;;7.00;2.78;;;;;;;;;;5031179;28;20022;-64
2023/04/02 07:49:42;;;;;;;12.32;3.40;;;;;;;;;;5031003;28;20068;-63
2023/04/02 07:52:08;;;;;;;9.98;3.30;;;;;;;;;;5030390;28;20017;-64
2023/04/02 07:54:34;;;;;;;8.52;3.67;;;;;;;;;;5031245;28;20025;-63
2023/04/02 07:57:01;;;;;;;6.57;3.90;;;;;;;;;;5030885;28;20034;-63
2023/04/02 07:59:28;;;;;;;9.18;3.75;;;;;;;;;;5031243;28;20482;-63
2023/04/02 08:01:54;;;;;;;10.00;3.30;;;;;;;;;;5031092;28;20026;-63
2023/04/02 08:04:21;;;;;;;11.25;3.17;;;;;;;;;;5030962;28;20534;-63
2023/04/02 08:06:48;;;;;;;6.68;3.00;;;;;;;;;;5031018;28;20101;-62
2023/04/02 08:09:15;;;;;;;7.30;2.97;;;;;;;;;;5031866;28;20474;-63
2023/04/02 08:11:41;;;;;;;6.68;3.20;;;;;;;;;;5035274;28;20021;-63
2023/04/02 08:14:11;;;;;;;9.80;3.22;;;;;;;;;;5035473;28;20037;-62
2023/04/02 08:16:47;;;;;;;11.25;4.45;;;;;;;;;;5046572;28;20025;-64
2023/04/02 08:19:14;;;;;;;11.38;3.50;;;;;;;;;;5044663;28;20064;-65
2023/04/02 08:21:40;;;;;;;10.38;2.90;;;;;;;;;;5036157;28;20091;-63
2023/04/02 08:24:06;;;;;;;8.48;2.75;;;;;;;;;;5040067;28;20033;-63
2023/04/02 08:26:32;;;;;;;6.18;2.75;;;;;;;;;;5054860;28;20112;-63
2023/04/02 08:28:58;;;;;;;10.65;3.33;;;;;;;;;;5054516;28;20025;-63
2023/04/02 08:31:24;;;;;;;9.20;3.25;;;;;;;;;;5037241;28;20037;-63
2023/04/02 08:33:52;;;;;;;8.05;2.88;;;;;;;;;;5035410;28;20044;-63
2023/04/02 08:36:19;;;;;;;7.50;2.55;;;;;;;;;;5041307;28;20029;-63
2023/04/02 08:38:45;;;;;;;8.25;2.60;;;;;;;;;;5034609;28;20060;-64
2023/04/02 08:41:29;;;;;;;8.43;2.80;;;;;;;;;;5039259;28;20205;-62
2023/04/02 08:43:58;;;;;;;8.55;3.13;;;;;;;;;;5046716;28;20029;-63
2023/04/02 08:46:24;;;;;;;9.75;3.00;;;;;;;;;;5036933;28;20071;-62
2023/04/02 08:48:54;;;;;;;8.02;2.38;;;;;;;;;;5034209;28;20081;-63
2023/04/02 08:51:24;;;;;;;12.18;3.00;;;;;;;;;;5041576;28;20079;-62
2023/04/02 08:53:52;;;;;;;9.98;2.90;;;;;;;;;;5053469;28;20381;-62
2023/04/02 08:56:28;;;;;;;7.88;2.88;;;;;;;;;;5054084;28;20063;-63
2023/04/02 08:58:56;;;;;;;5.32;2.72;;;;;;;;;;5052731;28;20079;-61
2023/04/02 09:02:00;;;;;;;17.42;3.50;;;;;;;;;;5054213;28;20025;-62
2023/04/02 09:04:27;;;;;;;6.00;2.38;;;;;;;;;;5036084;28;20045;-62
2023/04/02 09:06:54;;;;;;;8.85;2.88;;;;;;;;;;5048297;28;20052;-63
2023/04/02 09:09:21;;;;;;;7.80;2.78;;;;;;;;;;5051456;28;20124;-62
2023/04/02 09:11:57;;;;;;;11.68;3.40;;;;;;;;;;5053974;28;20040;-63
2023/04/02 09:14:32;;;;;;;8.88;3.00;;;;;;;;;;5053143;28;20032;-63
2023/04/02 09:17:00;;;;;;;10.30;3.33;;;;;;;;;;5047280;28;20032;-62
2023/04/02 09:19:33;;;;;;;9.45;2.80;;;;;;;;;;5046575;28;20029;-61
2023/04/02 09:22:04;;;;;;;7.47;3.35;;;;;;;;;;5042054;28;20405;-61
2023/04/02 09:24:30;;;;;;;6.85;4.15;;;;;;;;;;5036158;28;20037;-62
2023/04/02 09:26:57;;;;;;;7.88;3.00;;;;;;;;;;5033278;28;20029;-63
2023/04/02 09:29:43;;;;;;;8.07;3.10;;;;;;;;;;5033531;28;20021;-62
2023/04/02 09:32:12;;;;;;;15.30;2.90;;;;;;;;;;5050375;28;20033;-62
2023/04/02 09:34:38;;;;;;;10.80;2.65;;;;;;;;;;5053215;28;20036;-62
2023/04/02 09:37:16;;;;;;;9.77;2.85;;;;;;;;;;5053392;28;20033;-63
2023/04/02 09:39:42;;;;;;;10.32;2.90;;;;;;;;;;5052410;28;20460;-62
2023/04/02 09:42:28;;;;;;;7.78;2.42;;;;;;;;;;5053021;28;20041;-61
2023/04/02 09:45:11;;;;;;;9.85;2.72;;;;;;;;;;5053519;28;20511;-61
2023/04/02 09:47:38;;;;;;;10.43;2.80;;;;;;;;;;5051898;28;20037;-62
2023/04/02 09:50:23;;;;;;;9.40;2.95;;;;;;;;;;5053114;28;20036;-61
2023/04/02 09:52:50;;;;;;;10.05;2.95;;;;;;;;;;5050225;28;20025;-62
2023/04/02 09:55:19;;;;;;;9.88;2.63;;;;;;;;;;5053071;28;20036;-62
2023/04/02 09:57:46;;;;;;;12.00;4.30;;;;;;;;;;5052083;28;20035;-62
2023/04/02 10:00:18;;;;;;;11.45;2.67;;;;;;;;;;5053106;28;20040;-63
2023/04/02 10:02:58;;;;;;;9.63;2.60;;;;;;;;;;5048534;28;20116;-62
2023/04/02 10:05:26;;;;;;;9.05;2.95;;;;;;;;;;5052547;28;20028;-61
2023/04/02 10:07:53;;;;;;;9.52;3.22;;;;;;;;;;5052393;28;20033;-62
2023/04/02 10:10:29;;;;;;;9.73;3.17;;;;;;;;;;5044604;28;20029;-63
2023/04/02 10:12:58;;;;;;;15.07;3.53;;;;;;;;;;5035751;28;20021;-61
2023/04/02 10:15:51;;;;;;;11.95;3.30;;;;;;;;;;5052620;28;20036;-61
2023/04/02 10:18:22;;;;;;;10.98;2.35;;;;;;;;;;5051201;28;20079;-62
2023/04/02 10:20:50;;;;;;;8.55;2.60;;;;;;;;;;5046393;28;20017;-62
2023/04/02 10:23:17;;;;;;;8.73;2.95;;;;;;;;;;5041623;28;20025;-62
2023/04/02 10:25:49;;;;;;;11.63;2.50;;;;;;;;;;5052448;28;20036;-62
2023/04/02 10:28:30;;;;;;;10.40;2.63;;;;;;;;;;5051003;28;20037;-61
2023/04/02 10:31:05;;;;;;;12.80;3.40;;;;;;;;;;5032813;28;20071;-62
2023/04/02 10:33:35;;;;;;;15.27;3.05;;;;;;;;;;5036340;28;20265;-62
2023/04/02 10:36:13;;;;;;;5.82;2.53;;;;;;;;;;5038915;28;20023;-61
2023/04/02 10:38:48;;;;;;;16.02;2.88;;;;;;;;;;5051343;28;20083;-60
2023/04/02 10:41:28;;;;;;;13.60;3.33;;;;;;;;;;5040018;28;20041;-62
2023/04/02 10:44:17;;;;;;;14.27;2.85;;;;;;;;;;5034892;28;20021;-62
2023/04/02 10:46:57;;;;;;;7.85;1.90;;;;;;;;;;5031524;28;20478;-62
2023/04/02 10:49:30;;;;;;;9.88;2.50;;;;;;;;;;5033224;28;20442;-62
2023/04/02 10:52:12;;;;;;;5.22;2.88;;;;;;;;;;5042791;28;20025;-62
2023/04/02 10:54:54;;;;;;;5.68;1.80;;;;;;;;;;5046018;28;20053;-62
2023/04/02 10:57:28;;;;;;;9.35;2.20;;;;;;;;;;5049734;28;20529;-63
2023/04/02 11:00:17;;;;;;;7.88;2.35;;;;;;;;;;5031249;28;20025;-63
2023/04/02 11:02:50;;;;;;;6.13;2.13;;;;;;;;;;5041145;28;20113;-63
2023/04/02 11:05:18;;;;;;;6.00;2.03;;;;;;;;;;5033276;28;20111;-62
2023/04/02 11:07:51;;;;;;;9.07;2.60;;;;;;;;;;5051729;28;20115;-64
2023/04/02 11:10:18;;;;;;;15.13;2.45;;;;;;;;;;5042819;28;20064;-61
2023/04/02 11:13:23;;;;;;;13.68;3.40;;;;;;;;;;5034403;28;20482;-64
2023/04/02 11:15:49;;;;;;;9.82;2.22;;;;;;;;;;5046360;28;20107;-62
2023/04/02 11:18:23;;;;;;;8.70;2.50;;;;;;;;;;5042590;28;20052;-63
2023/04/02 11:20:49;;;;;;;10.13;3.08;;;;;;;;;;5041594;28;20036;-63
2023/04/02 11:23:19;;;;;;;9.15;2.97;;;;;;;;;;5035249;28;20030;-61
2023/04/02 11:25:46;;;;;;;8.30;2.38;;;;;;;;;;5051165;28;20116;-61
2023/04/02 11:28:13;;;;;;;9.95;2.40;;;;;;;;;;5049451;28;20381;-61
2023/04/02 11:30:39;;;;;;;8.10;2.25;;;;;;;;;;5046688;28;20061;-63
2023/04/02 11:33:24;;;;;;;9.02;2.42;;;;;;;;;;5034110;28;20021;-64
2023/04/02 11:35:50;;;;;;;14.10;2.60;;;;;;;;;;5050428;28;20029;-63
2023/04/02 11:38:23;;;;;;;9.23;2.90;;;;;;;;;;5049793;28;20040;-63
2023/04/02 11:40:53;;;;;;;12.95;2.65;;;;;;;;;;5039033;28;20040;-63
2023/04/02 11:43:36;;;;;;;15.05;3.28;;;;;;;;;;5043498;28;20139;-62
2023/04/02 11:46:01;;;;;;;;;;;;;;;;;;5029588;28;20033;-62
2023/04/02 11:48:35;;;;;;;16.10;3.55;;;;;;;;;;5043615;28;19962;-62
2023/04/02 11:51:11;;;;;;;11.55;3.13;;;;;;;;;;5039058;28;20029;-63
2023/04/02 11:53:41;;;;;;;5.97;1.98;;;;;;;;;;5034906;28;20517;-63
2023/04/02 11:56:20;;;;;;;14.35;3.00;;;;;;;;;;5032560;28;20079;-63
2023/04/02 11:58:48;;;;;;;9.10;2.72;;;;;;;;;;5031064;28;20071;-63
2023/04/02 12:01:18;;;;;;;10.13;3.63;;;;;;;;;;5032154;28;20026;-62
2023/04/02 12:03:44;;;;;;;11.00;2.65;;;;;;;;;;5034990;28;20083;-63
2023/04/02 12:06:38;;;;;;;7.43;2.55;;;;;;;;;;5051292;28;20071;-65
2023/04/02 12:09:22;;;;;;;8.70;2.50;;;;;;;;;;5051081;28;20049;-62
2023/04/02 12:11:50;;;;;;;6.55;2.33;;;;;;;;;;5040619;28;20021;-62
2023/04/02 12:14:48;;;;;;;6.40;2.20;;;;;;;;;;5030987;28;20026;-63
2023/04/02 12:17:21;;;;;;;9.02;2.65;;;;;;;;;;5039914;28;20041;-63
2023/04/02 12:19:52;;;;;;;6.50;2.40;;;;;;;;;;5031061;28;20026;-62
2023/04/02 12:22:23;;;;;;;11.10;2.25;;;;;;;;;;5031363;28;20030;-64
2023/04/02 12:24:50;;;;;;;10.30;2.20;;;;;;;;;;5032367;28;20528;-63
2023/04/02 12:27:21;;;;;;;6.38;1.80;;;;;;;;;;5030930;28;20033;-63
2023/04/02 12:29:48;;;;;;;7.95;2.33;;;;;;;;;;5045386;28;20392;-62
2023/04/02 12:32:21;;;;;;;12.20;2.63;;;;;;;;;;5049347;28;20401;-64
2023/04/02 12:34:47;;;;;;;5.82;2.17;;;;;;;;;;5050576;28;20079;-62
2023/04/02 12:37:27;;;;;;;7.60;2.20;;;;;;;;;;5044931;28;20040;-62
2023/04/02 12:39:57;;;;;;;6.75;1.90;;;;;;;;;;5030758;28;20548;-62
2023/04/02 12:42:28;;;;;;;7.65;2.08;;;;;;;;;;5033529;28;20041;-64
2023/04/02 12:44:54;;;;;;;12.88;2.33;;;;;;;;;;5040236;28;20041;-63
2023/04/02 12:47:20;;;;;;;9.35;2.70;;;;;;;;;;5036451;28;20036;-63
2023/04/02 12:49:46;;;;;;;12.70;2.25;;;;;;;;;;5050432;28;20033;-64
2023/04/02 12:52:14;;;;;;;6.00;2.00;;;;;;;;;;5050241;28;20025;-63
2023/04/02 12:55:00;;;;;;;7.10;1.98;;;;;;;;;;5049995;28;20592;-63
2023/04/02 12:57:26;;;;;;;14.02;2.15;;;;;;;;;;5052507;28;20045;-63
2023/04/02 12:59:53;;;;;;;10.15;2.75;;;;;;;;;;5054160;28;20096;-63
2023/04/02 13:02:20;;;;;;;7.10;1.80;;;;;;;;;;5046969;28;20199;-64
2023/04/02 13:04:48;;;;;;;7.82;1.92;;;;;;;;;;5032974;28;20083;-63
2023/04/02 13:07:16;;;;;;;7.20;1.65;;;;;;;;;;5034078;28;20064;-63
2023/04/02 13:09:45;;;;;;;7.10;2.78;;;;;;;;;;5034028;28;20028;-64
2023/04/02 13:12:32;;;;;;;11.40;1.85;;;;;;;;;;5033708;28;20032;-64
2023/04/02 13:14:59;;;;;;;8.52;2.22;;;;;;;;;;5033516;28;20034;-63
2023/04/02 13:17:40;;;;;;;10.02;2.05;;;;;;;;;;5033887;28;20037;-64
2023/04/02 13:20:25;;;;;;;7.00;2.47;;;;;;;;;;5038742;28;20017;-63
2023/04/02 13:22:51;;;;;;;10.60;2.17;;;;;;;;;;5053645;28;20082;-63
2023/04/02 13:25:17;;;;;;;10.07;2.00;;;;;;;;;;5053439;28;20025;-62
2023/04/02 13:27:43;;;;;;;8.65;1.65;;;;;;;;;;5053398;28;20021;-65
2023/04/02 13:30:10;;;;;;;6.63;1.50;;;;;;;;;;5053659;28;20036;-63
2023/04/02 13:32:36;;;;;;;6.80;1.90;;;;;;;;;;5052219;28;20028;-63
2023/04/02 13:35:03;;;;;;;7.00;1.50;;;;;;;;;;5053532;28;20028;-64
2023/04/02 13:37:29;;;;;;;5.30;1.63;;;;;;;;;;5052164;28;20033;-63
2023/04/02 13:39:55;;;;;;;5.25;1.55;;;;;;;;;;5053725;28;20029;-64
2023/04/02 13:42:21;;;;;;;5.95;2.05;;;;;;;;;;5053093;28;20118;-63
2023/04/02 13:44:47;;;;;;;8.90;1.90;;;;;;;;;;5053343;28;20029;-63
2023/04/02 13:47:14;;;;;;;6.35;2.00;;;;;;;;;;5053231;28;20478;-63
2023/04/02 13:49:40;;;;;;;8.00;1.70;;;;;;;;;;5053092;28;20028;-62
2023/04/02 13:52:06;;;;;;;4.32;1.50;;;;;;;;;;5053162;28;20071;-63
2023/04/02 13:54:58;;;;;;;6.45;1.73;;;;;;;;;;5051810;28;20025;-62
2023/04/02 13:57:24;;;;;;;;;;;;;;;;;;5053423;28;20117;-63
2023/04/02 13:59:50;;;;;;;4.68;1.40;;;;;;;;;;5052836;28;19954;-63
2023/04/02 14:02:17;;;;;;;9.88;1.60;;;;;;;;;;5052823;28;20050;-63
2023/04/02 14:04:52;;;;;;;7.57;1.45;;;;;;;;;;5052815;28;20025;-64
2023/04/02 14:07:31;;;;;;;6.72;1.73;;;;;;;;;;5052815;28;20127;-63
2023/04/02 14:10:09;;;;;;;8.00;1.38;;;;;;;;;;5052114;28;20079;-64
2023/04/02 14:12:56;;;;;;;6.88;1.73;;;;;;;;;;5052996;28;20104;-63
2023/04/02 14:15:38;;;;;;;5.03;1.52;;;;;;;;;;5052171;28;20067;-63
2023/04/02 14:18:22;;;;;;;7.10;1.52;;;;;;;;;;5052629;28;20033;-62
2023/04/02 14:20:54;;;;;;;8.38;1.58;;;;;;;;;;5052777;28;20071;-63
2023/04/02 14:23:26;;;;;;;5.57;1.52;;;;;;;;;;5052714;28;20096;-63
2023/04/02 14:25:56;;;;;;;6.00;1.85;;;;;;;;;;5052673;28;20036;-62
2023/04/02 14:28:26;;;;;;;6.18;1.50;;;;;;;;;;5051418;28;20032;-63
2023/04/02 14:31:04;;;;;;;6.25;1.30;;;;;;;;;;5052403;28;20075;-62
2023/04/02 14:33:38;;;;;;;9.68;1.67;;;;;;;;;;5052213;28;20029;-64
2023/04/02 14:36:16;;;;;;;5.60;1.58;;;;;;;;;;5052337;28;20040;-63
2023/04/02 14:38:54;;;;;;;4.95;1.60;;;;;;;;;;5052244;28;20040;-62
2023/04/02 14:41:29;;;;;;;5.85;1.80;;;;;;;;;;5052093;28;20037;-63
2023/04/02 14:44:00;;;;;;;7.63;1.80;;;;;;;;;;5050997;28;20036;-63
2023/04/02 14:46:26;;;;;;;;;;;;;;;;;;5052589;28;20021;-63
2023/04/02 14:48:58;;;;;;;7.47;1.38;;;;;;;;;;5052087;28;19911;-63
2023/04/02 14:51:25;;;;;;;8.18;1.45;;;;;;;;;;5052077;28;20359;-63
2023/04/02 14:53:51;;;;;;;5.35;1.60;;;;;;;;;;5051990;28;20375;-63
2023/04/02 14:56:19;;;;;;;5.13;1.52;;;;;;;;;;5051995;28;20094;-63
2023/04/02 14:58:48;;;;;;;8.82;1.58;;;;;;;;;;5049355;28;20043;-65
2023/04/02 15:01:19;;;;;;;4.43;1.38;;;;;;;;;;5051999;28;20032;-63
2023/04/02 15:03:57;;;;;;;6.72;1.52;;;;;;;;;;5051940;28;20029;-63
2023/04/02 15:06:26;;;;;;;3.38;1.20;;;;;;;;;;5051973;28;20091;-64
2023/04/02 15:08:55;;;;;;;3.03;1.25;;;;;;;;;;5050371;28;20426;-64